sensor_id;sensor_type;location;lat;lon;timestamp;P1;durP1;ratioP1;P2;durP2;ratioP2
26864;SDS011;40618;51.166;10.322;2023-04-10T00:02:18;13.77;;;10.05;;
26864;SDS011;40618;51.166;10.322;2023-04-10T00:04:44;14.95;;;10.68;;
26864;SDS011;40618;51.166;10.322;2023-04-10T00:07:10;17.50;;;10.98;;
26864;SDS011;40618;51.166;10.322;2023-04-10T00:09:35;16.33;;;11.10;;
26864;SDS011;40618;51.166;10.322;2023-04-10T00:12:01;16.55;;;10.88;;
26864;SDS011;40618;51.166;10.322;2023-04-10T00:14:26;17.38;;;11.20;;
26864;SDS011;40618;51.166;10.322;2023-04-10T00:16:52;23.80;;;11.35;;
26864;SDS011;40618;51.166;10.322;2023-04-10T00:19:18;18.33;;;11.65;;
26864;SDS011;40618;51.166;10.322;2023-04-10T00:21:43;17.27;;;10.88;;
26864;SDS011;40618;51.166;10.322;2023-04-10T00:24:09;18.73;;;10.77;;
26864;SDS011;40618;51.166;10.322;2023-04-10T00:26:35;17.88;;;11.15;;
26864;SDS011;40618;51.166;10.322;2023-04-10T00:29:01;19.48;;;11.63;;
26864;SDS011;40618;51.166;10.322;2023-04-10T00:31:28;15.65;;;10.15;;
26864;SDS011;40618;51.166;10.322;2023-04-10T00:33:54;18.08;;;11.18;;
26864;SDS011;40618;51.166;10.322;2023-04-10T00:36:20;17.08;;;10.82;;
26864;SDS011;40618;51.166;10.322;2023-04-10T00:38:46;19.08;;;12.20;;
26864;SDS011;40618;51.166;10.322;2023-04-10T00:41:13;18.05;;;11.57;;
26864;SDS011;40618;51.166;10.322;2023-04-10T00:43:39;16.77;;;10.95;;
26864;SDS011;40618;51.166;10.322;2023-04-10T00:46:05;18.15;;;11.27;;
26864;SDS011;40618;51.166;10.322;2023-04-10T00:48:31;17.50;;;11.75;;
26864;SDS011;40618;51.166;10.322;2023-04-10T00:50:59;16.17;;;10.23;;
26864;SDS011;40618;51.166;10.322;2023-04-10T00:53:25;16.08;;;10.82;;
26864;SDS011;40618;51.166;10.322;2023-04-10T00:55:52;18.15;;;11.63;;
26864;SDS011;40618;51.166;10.322;2023-04-10T00:58:19;17.30;;;11.15;;
26864;SDS011;40618;51.166;10.322;2023-04-10T01:00:45;21.20;;;12.05;;
26864;SDS011;40618;51.166;10.322;2023-04-10T01:03:12;19.33;;;11.15;;
26864;SDS011;40618;51.166;10.322;2023-04-10T01:05:59;19.13;;;11.02;;
26864;SDS011;40618;51.166;10.322;2023-04-10T01:17:20;18.05;;;11.48;;
26864;SDS011;40618;51.166;10.322;2023-04-10T01:25:16;17.77;;;11.20;;
26864;SDS011;40618;51.166;10.322;2023-04-10T01:28:40;16.45;;;10.63;;
26864;SDS011;40618;51.166;10.322;2023-04-10T01:31:18;16.15;;;10.48;;
26864;SDS011;40618;51.166;10.322;2023-04-10T01:34:03;17.50;;;10.50;;
26864;SDS011;40618;51.166;10.322;2023-04-10T01:36:41;17.20;;;11.52;;
26864;SDS011;40618;51.166;10.322;2023-04-10T01:39:18;16.40;;;11.50;;
26864;SDS011;40618;51.166;10.322;2023-04-10T01:41:47;16.25;;;11.07;;
26864;SDS011;40618;51.166;10.322;2023-04-10T01:44:18;18.15;;;11.32;;
26864;SDS011;40618;51.166;10.322;2023-04-10T01:46:52;17.42;;;10.93;;
26864;SDS011;40618;51.166;10.322;2023-04-10T01:49:22;13.37;;;8.00;;
26864;SDS011;40618;51.166;10.322;2023-04-10T01:51:51;16.98;;;10.95;;
26864;SDS011;40618;51.166;10.322;2023-04-10T01:56:50;15.35;;;10.23;;
26864;SDS011;40618;51.166;10.322;2023-04-10T01:59:16;17.63;;;11.07;;
26864;SDS011;40618;51.166;10.322;2023-04-10T02:01:43;16.75;;;10.88;;
26864;SDS011;40618;51.166;10.322;2023-04-10T02:04:08;16.27;;;10.23;;
26864;SDS011;40618;51.166;10.322;2023-04-10T02:06:43;18.73;;;12.07;;
26864;SDS011;40618;51.166;10.322;2023-04-10T02:12:10;17.70;;;10.73;;
26864;SDS011;40618;51.166;10.322;2023-04-10T02:14:41;16.98;;;10.38;;
26864;SDS011;40618;51.166;10.322;2023-04-10T02:17:12;18.13;;;11.10;;
26864;SDS011;40618;51.166;10.322;2023-04-10T02:19:44;15.07;;;10.50;;
26864;SDS011;40618;51.166;10.322;2023-04-10T02:22:12;15.35;;;10.13;;
26864;SDS011;40618;51.166;10.322;2023-04-10T02:24:40;14.02;;;10.07;;
26864;SDS011;40618;51.166;10.322;2023-04-10T02:27:06;17.30;;;10.80;;
26864;SDS011;40618;51.166;10.322;2023-04-10T02:29:31;13.68;;;9.75;;
26864;SDS011;40618;51.166;10.322;2023-04-10T02:31:57;15.90;;;10.43;;
26864;SDS011;40618;51.166;10.322;2023-04-10T02:34:23;15.52;;;10.13;;
26864;SDS011;40618;51.166;10.322;2023-04-10T02:36:49;16.42;;;10.88;;
26864;SDS011;40618;51.166;10.322;2023-04-10T02:39:14;15.63;;;9.52;;
26864;SDS011;40618;51.166;10.322;2023-04-10T02:41:40;16.38;;;10.23;;
26864;SDS011;40618;51.166;10.322;2023-04-10T02:44:05;16.63;;;10.48;;
26864;SDS011;40618;51.166;10.322;2023-04-10T02:46:31;15.70;;;10.57;;
26864;SDS011;40618;51.166;10.322;2023-04-10T02:48:57;15.50;;;10.48;;
26864;SDS011;40618;51.166;10.322;2023-04-10T02:51:23;15.32;;;10.32;;
26864;SDS011;40618;51.166;10.322;2023-04-10T02:53:48;15.52;;;9.75;;
26864;SDS011;40618;51.166;10.322;2023-04-10T02:56:14;17.88;;;11.25;;
26864;SDS011;40618;51.166;10.322;2023-04-10T02:58:40;15.77;;;10.60;;
26864;SDS011;40618;51.166;10.322;2023-04-10T03:01:09;14.00;;;9.65;;
26864;SDS011;40618;51.166;10.322;2023-04-10T03:03:35;16.67;;;10.25;;
26864;SDS011;40618;51.166;10.322;2023-04-10T03:06:00;15.98;;;10.55;;
26864;SDS011;40618;51.166;10.322;2023-04-10T03:08:26;16.83;;;9.93;;
26864;SDS011;40618;51.166;10.322;2023-04-10T03:10:51;13.45;;;9.48;;
26864;SDS011;40618;51.166;10.322;2023-04-10T03:13:17;13.57;;;9.88;;
26864;SDS011;40618;51.166;10.322;2023-04-10T03:15:42;15.93;;;10.48;;
26864;SDS011;40618;51.166;10.322;2023-04-10T03:18:08;15.85;;;10.43;;
26864;SDS011;40618;51.166;10.322;2023-04-10T03:20:34;12.68;;;9.40;;
26864;SDS011;40618;51.166;10.322;2023-04-10T03:23:02;15.68;;;10.68;;
26864;SDS011;40618;51.166;10.322;2023-04-10T03:25:29;14.07;;;9.45;;
26864;SDS011;40618;51.166;10.322;2023-04-10T03:27:56;17.52;;;10.23;;
26864;SDS011;40618;51.166;10.322;2023-04-10T03:30:22;15.38;;;10.38;;
26864;SDS011;40618;51.166;10.322;2023-04-10T03:32:47;14.70;;;9.32;;
26864;SDS011;40618;51.166;10.322;2023-04-10T03:35:13;14.13;;;9.38;;
26864;SDS011;40618;51.166;10.322;2023-04-10T03:37:38;15.80;;;9.95;;
26864;SDS011;40618;51.166;10.322;2023-04-10T03:40:06;13.95;;;9.40;;
26864;SDS011;40618;51.166;10.322;2023-04-10T03:42:34;15.05;;;8.82;;
26864;SDS011;40618;51.166;10.322;2023-04-10T03:45:00;16.77;;;10.23;;
26864;SDS011;40618;51.166;10.322;2023-04-10T03:47:28;16.30;;;9.50;;
26864;SDS011;40618;51.166;10.322;2023-04-10T03:49:56;14.63;;;9.32;;
26864;SDS011;40618;51.166;10.322;2023-04-10T03:52:25;13.50;;;9.18;;
26864;SDS011;40618;51.166;10.322;2023-04-10T03:54:52;15.20;;;9.80;;
26864;SDS011;40618;51.166;10.322;2023-04-10T03:57:19;16.20;;;9.45;;
26864;SDS011;40618;51.166;10.322;2023-04-10T03:59:47;15.40;;;9.63;;
26864;SDS011;40618;51.166;10.322;2023-04-10T04:02:13;16.63;;;10.82;;
26864;SDS011;40618;51.166;10.322;2023-04-10T04:04:39;18.73;;;10.75;;
26864;SDS011;40618;51.166;10.322;2023-04-10T04:07:05;18.70;;;11.05;;
26864;SDS011;40618;51.166;10.322;2023-04-10T04:09:30;17.50;;;11.25;;
26864;SDS011;40618;51.166;10.322;2023-04-10T04:11:56;17.08;;;10.48;;
26864;SDS011;40618;51.166;10.322;2023-04-10T04:14:22;17.10;;;11.63;;
26864;SDS011;40618;51.166;10.322;2023-04-10T04:16:48;18.95;;;11.68;;
26864;SDS011;40618;51.166;10.322;2023-04-10T04:19:14;18.05;;;11.75;;
26864;SDS011;40618;51.166;10.322;2023-04-10T04:21:39;18.98;;;11.48;;
26864;SDS011;40618;51.166;10.322;2023-04-10T04:24:05;17.75;;;11.45;;
26864;SDS011;40618;51.166;10.322;2023-04-10T04:26:31;19.02;;;11.82;;
26864;SDS011;40618;51.166;10.322;2023-04-10T04:28:57;19.35;;;11.55;;
26864;SDS011;40618;51.166;10.322;2023-04-10T04:31:23;17.35;;;10.82;;
26864;SDS011;40618;51.166;10.322;2023-04-10T04:33:49;16.80;;;11.40;;
26864;SDS011;40618;51.166;10.322;2023-04-10T04:36:15;17.75;;;12.05;;
26864;SDS011;40618;51.166;10.322;2023-04-10T04:38:41;19.23;;;12.02;;
26864;SDS011;40618;51.166;10.322;2023-04-10T04:41:06;19.38;;;11.65;;
26864;SDS011;40618;51.166;10.322;2023-04-10T04:43:32;18.58;;;12.32;;
26864;SDS011;40618;51.166;10.322;2023-04-10T04:45:58;17.05;;;12.18;;
26864;SDS011;40618;51.166;10.322;2023-04-10T04:48:24;17.83;;;10.98;;
26864;SDS011;40618;51.166;10.322;2023-04-10T04:50:49;18.08;;;10.93;;
26864;SDS011;40618;51.166;10.322;2023-04-10T04:53:15;16.80;;;10.57;;
26864;SDS011;40618;51.166;10.322;2023-04-10T04:55:41;16.55;;;10.48;;
26864;SDS011;40618;51.166;10.322;2023-04-10T04:58:06;19.40;;;11.75;;
26864;SDS011;40618;51.166;10.322;2023-04-10T05:00:32;17.23;;;11.20;;
26864;SDS011;40618;51.166;10.322;2023-04-10T05:02:57;17.92;;;11.23;;
26864;SDS011;40618;51.166;10.322;2023-04-10T05:05:23;18.88;;;12.20;;
26864;SDS011;40618;51.166;10.322;2023-04-10T05:07:48;16.85;;;11.30;;
26864;SDS011;40618;51.166;10.322;2023-04-10T05:10:14;18.80;;;12.18;;
26864;SDS011;40618;51.166;10.322;2023-04-10T05:12:40;18.77;;;12.25;;
26864;SDS011;40618;51.166;10.322;2023-04-10T05:15:07;18.58;;;11.93;;
26864;SDS011;40618;51.166;10.322;2023-04-10T05:17:33;18.98;;;12.77;;
26864;SDS011;40618;51.166;10.322;2023-04-10T05:19:59;19.48;;;12.50;;
26864;SDS011;40618;51.166;10.322;2023-04-10T05:22:25;18.65;;;12.48;;
26864;SDS011;40618;51.166;10.322;2023-04-10T05:24:51;20.15;;;12.63;;
26864;SDS011;40618;51.166;10.322;2023-04-10T05:27:19;19.17;;;12.65;;
26864;SDS011;40618;51.166;10.322;2023-04-10T05:29:44;19.05;;;12.70;;
26864;SDS011;40618;51.166;10.322;2023-04-10T05:32:10;21.17;;;13.20;;
26864;SDS011;40618;51.166;10.322;2023-04-10T05:34:36;19.35;;;12.30;;
26864;SDS011;40618;51.166;10.322;2023-04-10T05:37:01;23.45;;;13.77;;
26864;SDS011;40618;51.166;10.322;2023-04-10T05:39:27;21.45;;;13.90;;
26864;SDS011;40618;51.166;10.322;2023-04-10T05:41:52;17.88;;;12.43;;
26864;SDS011;40618;51.166;10.322;2023-04-10T05:44:18;20.55;;;12.82;;
26864;SDS011;40618;51.166;10.322;2023-04-10T05:46:44;20.02;;;12.55;;
26864;SDS011;40618;51.166;10.322;2023-04-10T05:49:09;19.58;;;12.07;;
26864;SDS011;40618;51.166;10.322;2023-04-10T05:51:35;19.63;;;12.13;;
26864;SDS011;40618;51.166;10.322;2023-04-10T05:54:00;19.35;;;12.73;;
26864;SDS011;40618;51.166;10.322;2023-04-10T05:56:26;21.75;;;13.70;;
26864;SDS011;40618;51.166;10.322;2023-04-10T05:58:52;20.67;;;13.10;;
26864;SDS011;40618;51.166;10.322;2023-04-10T06:01:17;17.63;;;12.00;;
26864;SDS011;40618;51.166;10.322;2023-04-10T06:03:43;18.20;;;11.98;;
26864;SDS011;40618;51.166;10.322;2023-04-10T06:06:08;19.30;;;12.25;;
26864;SDS011;40618;51.166;10.322;2023-04-10T06:08:34;18.13;;;11.98;;
26864;SDS011;40618;51.166;10.322;2023-04-10T06:11:00;19.15;;;12.07;;
26864;SDS011;40618;51.166;10.322;2023-04-10T06:13:26;18.38;;;11.82;;
26864;SDS011;40618;51.166;10.322;2023-04-10T06:15:51;21.05;;;12.13;;
26864;SDS011;40618;51.166;10.322;2023-04-10T06:18:17;18.23;;;11.98;;
26864;SDS011;40618;51.166;10.322;2023-04-10T06:20:43;19.92;;;12.95;;
26864;SDS011;40618;51.166;10.322;2023-04-10T06:23:09;18.63;;;11.95;;
26864;SDS011;40618;51.166;10.322;2023-04-10T06:25:36;19.95;;;12.05;;
26864;SDS011;40618;51.166;10.322;2023-04-10T06:28:02;18.73;;;11.98;;
26864;SDS011;40618;51.166;10.322;2023-04-10T06:30:28;17.92;;;11.75;;
26864;SDS011;40618;51.166;10.322;2023-04-10T06:32:54;17.27;;;11.38;;
26864;SDS011;40618;51.166;10.322;2023-04-10T06:35:20;16.70;;;11.07;;
26864;SDS011;40618;51.166;10.322;2023-04-10T06:37:45;16.88;;;10.98;;
26864;SDS011;40618;51.166;10.322;2023-04-10T06:40:12;14.05;;;10.23;;
26864;SDS011;40618;51.166;10.322;2023-04-10T06:42:39;14.13;;;10.02;;
26864;SDS011;40618;51.166;10.322;2023-04-10T06:45:06;14.77;;;9.88;;
26864;SDS011;40618;51.166;10.322;2023-04-10T06:47:32;16.95;;;10.65;;
26864;SDS011;40618;51.166;10.322;2023-04-10T06:49:58;13.20;;;8.95;;
26864;SDS011;40618;51.166;10.322;2023-04-10T06:52:24;16.13;;;10.43;;
26864;SDS011;40618;51.166;10.322;2023-04-10T06:54:50;16.20;;;10.70;;
26864;SDS011;40618;51.166;10.322;2023-04-10T06:57:16;13.10;;;9.00;;
26864;SDS011;40618;51.166;10.322;2023-04-10T06:59:42;15.00;;;10.18;;
26864;SDS011;40618;51.166;10.322;2023-04-10T07:02:09;18.83;;;10.82;;
26864;SDS011;40618;51.166;10.322;2023-04-10T07:04:35;18.10;;;11.35;;
26864;SDS011;40618;51.166;10.322;2023-04-10T07:07:01;15.27;;;10.27;;
26864;SDS011;40618;51.166;10.322;2023-04-10T07:09:28;15.32;;;10.38;;
26864;SDS011;40618;51.166;10.322;2023-04-10T07:11:54;15.80;;;10.57;;
26864;SDS011;40618;51.166;10.322;2023-04-10T07:14:20;15.48;;;9.90;;
26864;SDS011;40618;51.166;10.322;2023-04-10T07:16:47;14.80;;;9.32;;
26864;SDS011;40618;51.166;10.322;2023-04-10T07:19:13;16.10;;;10.07;;
26864;SDS011;40618;51.166;10.322;2023-04-10T07:21:38;11.82;;;8.65;;
26864;SDS011;40618;51.166;10.322;2023-04-10T07:24:04;16.73;;;9.23;;
26864;SDS011;40618;51.166;10.322;2023-04-10T07:26:30;13.02;;;9.02;;
26864;SDS011;40618;51.166;10.322;2023-04-10T07:28:56;15.43;;;10.57;;
26864;SDS011;40618;51.166;10.322;2023-04-10T07:31:21;11.82;;;8.07;;
26864;SDS011;40618;51.166;10.322;2023-04-10T07:33:47;12.77;;;8.25;;
26864;SDS011;40618;51.166;10.322;2023-04-10T07:36:14;18.25;;;11.20;;
26864;SDS011;40618;51.166;10.322;2023-04-10T07:38:39;17.90;;;11.07;;
26864;SDS011;40618;51.166;10.322;2023-04-10T07:41:06;13.13;;;8.93;;
26864;SDS011;40618;51.166;10.322;2023-04-10T07:43:32;17.35;;;10.98;;
26864;SDS011;40618;51.166;10.322;2023-04-10T07:45:57;13.02;;;9.27;;
26864;SDS011;40618;51.166;10.322;2023-04-10T07:48:23;12.00;;;8.80;;
26864;SDS011;40618;51.166;10.322;2023-04-10T07:50:48;15.52;;;10.13;;
26864;SDS011;40618;51.166;10.322;2023-04-10T07:53:14;13.48;;;8.23;;
26864;SDS011;40618;51.166;10.322;2023-04-10T07:55:43;16.48;;;10.05;;
26864;SDS011;40618;51.166;10.322;2023-04-10T07:58:13;14.00;;;8.20;;
26864;SDS011;40618;51.166;10.322;2023-04-10T08:00:40;10.55;;;7.40;;
26864;SDS011;40618;51.166;10.322;2023-04-10T08:03:06;13.75;;;8.00;;
26864;SDS011;40618;51.166;10.322;2023-04-10T08:05:32;13.25;;;8.85;;
26864;SDS011;40618;51.166;10.322;2023-04-10T08:07:58;14.35;;;9.43;;
26864;SDS011;40618;51.166;10.322;2023-04-10T08:10:24;10.65;;;7.90;;
26864;SDS011;40618;51.166;10.322;2023-04-10T08:12:50;13.40;;;9.32;;
26864;SDS011;40618;51.166;10.322;2023-04-10T08:15:16;11.50;;;8.20;;
26864;SDS011;40618;51.166;10.322;2023-04-10T08:17:42;13.82;;;9.45;;
26864;SDS011;40618;51.166;10.322;2023-04-10T08:20:08;10.55;;;7.70;;
26864;SDS011;40618;51.166;10.322;2023-04-10T08:22:35;12.63;;;8.25;;
26864;SDS011;40618;51.166;10.322;2023-04-10T08:25:01;11.65;;;7.57;;
26864;SDS011;40618;51.166;10.322;2023-04-10T08:27:28;13.55;;;9.77;;
26864;SDS011;40618;51.166;10.322;2023-04-10T08:29:54;12.40;;;7.65;;
26864;SDS011;40618;51.166;10.322;2023-04-10T08:32:20;11.32;;;8.07;;
26864;SDS011;40618;51.166;10.322;2023-04-10T08:34:47;12.00;;;8.02;;
26864;SDS011;40618;51.166;10.322;2023-04-10T08:37:13;9.70;;;6.65;;
26864;SDS011;40618;51.166;10.322;2023-04-10T08:39:39;10.00;;;7.82;;
26864;SDS011;40618;51.166;10.322;2023-04-10T08:42:06;11.77;;;8.32;;
26864;SDS011;40618;51.166;10.322;2023-04-10T08:44:32;9.90;;;7.75;;
26864;SDS011;40618;51.166;10.322;2023-04-10T08:46:59;10.68;;;8.18;;
26864;SDS011;40618;51.166;10.322;2023-04-10T08:52:08;14.52;;;10.25;;
26864;SDS011;40618;51.166;10.322;2023-04-10T08:54:50;17.58;;;11.40;;
26864;SDS011;40618;51.166;10.322;2023-04-10T08:57:20;13.70;;;9.32;;
26864;SDS011;40618;51.166;10.322;2023-04-10T08:59:47;11.27;;;8.93;;
26864;SDS011;40618;51.166;10.322;2023-04-10T09:02:15;12.18;;;8.65;;
26864;SDS011;40618;51.166;10.322;2023-04-10T09:04:43;13.27;;;9.18;;
26864;SDS011;40618;51.166;10.322;2023-04-10T09:07:15;12.50;;;7.95;;
26864;SDS011;40618;51.166;10.322;2023-04-10T09:09:42;11.32;;;8.50;;
26864;SDS011;40618;51.166;10.322;2023-04-10T09:12:09;11.40;;;9.07;;
26864;SDS011;40618;51.166;10.322;2023-04-10T09:14:38;14.15;;;9.30;;
26864;SDS011;40618;51.166;10.322;2023-04-10T09:17:09;11.70;;;8.45;;
26864;SDS011;40618;51.166;10.322;2023-04-10T09:19:57;12.13;;;7.97;;
26864;SDS011;40618;51.166;10.322;2023-04-10T09:22:29;14.32;;;9.95;;
26864;SDS011;40618;51.166;10.322;2023-04-10T09:24:56;10.50;;;8.27;;
26864;SDS011;40618;51.166;10.322;2023-04-10T09:27:30;10.85;;;8.32;;
26864;SDS011;40618;51.166;10.322;2023-04-10T09:30:04;16.95;;;9.95;;
26864;SDS011;40618;51.166;10.322;2023-04-10T09:32:42;14.68;;;9.45;;
26864;SDS011;40618;51.166;10.322;2023-04-10T09:35:11;14.63;;;9.98;;
26864;SDS011;40618;51.166;10.322;2023-04-10T09:37:39;13.90;;;9.48;;
26864;SDS011;40618;51.166;10.322;2023-04-10T09:40:24;11.02;;;8.73;;
26864;SDS011;40618;51.166;10.322;2023-04-10T09:42:50;10.82;;;8.10;;
26864;SDS011;40618;51.166;10.322;2023-04-10T09:45:16;13.05;;;9.05;;
26864;SDS011;40618;51.166;10.322;2023-04-10T09:48:05;13.20;;;9.02;;
26864;SDS011;40618;51.166;10.322;2023-04-10T09:50:35;11.85;;;8.27;;
26864;SDS011;40618;51.166;10.322;2023-04-10T09:53:04;12.90;;;8.43;;
26864;SDS011;40618;51.166;10.322;2023-04-10T09:55:31;9.88;;;7.30;;
26864;SDS011;40618;51.166;10.322;2023-04-10T09:58:00;11.10;;;8.00;;
26864;SDS011;40618;51.166;10.322;2023-04-10T10:00:27;10.90;;;8.13;;
26864;SDS011;40618;51.166;10.322;2023-04-10T10:02:53;9.15;;;7.28;;
26864;SDS011;40618;51.166;10.322;2023-04-10T10:05:23;11.13;;;8.07;;
26864;SDS011;40618;51.166;10.322;2023-04-10T10:07:54;12.45;;;7.53;;
26864;SDS011;40618;51.166;10.322;2023-04-10T10:10:21;8.30;;;6.45;;
26864;SDS011;40618;51.166;10.322;2023-04-10T10:12:53;7.68;;;6.18;;
26864;SDS011;40618;51.166;10.322;2023-04-10T10:18:46;21.13;;;13.48;;
26864;SDS011;40618;51.166;10.322;2023-04-10T10:21:25;11.00;;;7.90;;
26864;SDS011;40618;51.166;10.322;2023-04-10T10:23:52;6.80;;;5.97;;
26864;SDS011;40618;51.166;10.322;2023-04-10T10:26:21;6.43;;;5.32;;
26864;SDS011;40618;51.166;10.322;2023-04-10T10:28:48;6.30;;;5.07;;
26864;SDS011;40618;51.166;10.322;2023-04-10T10:31:16;7.10;;;5.68;;
26864;SDS011;40618;51.166;10.322;2023-04-10T10:33:43;6.15;;;5.05;;
26864;SDS011;40618;51.166;10.322;2023-04-10T10:36:11;5.60;;;5.00;;
26864;SDS011;40618;51.166;10.322;2023-04-10T10:38:40;5.85;;;5.07;;
26864;SDS011;40618;51.166;10.322;2023-04-10T10:41:22;4.63;;;4.07;;
26864;SDS011;40618;51.166;10.322;2023-04-10T10:43:59;5.28;;;4.55;;
26864;SDS011;40618;51.166;10.322;2023-04-10T10:49:16;6.38;;;5.22;;
26864;SDS011;40618;51.166;10.322;2023-04-10T10:51:45;5.45;;;4.20;;
26864;SDS011;40618;51.166;10.322;2023-04-10T10:54:26;5.65;;;4.22;;
26864;SDS011;40618;51.166;10.322;2023-04-10T10:56:54;5.13;;;4.15;;
26864;SDS011;40618;51.166;10.322;2023-04-10T11:02:17;4.05;;;3.63;;
26864;SDS011;40618;51.166;10.322;2023-04-10T11:04:43;5.38;;;4.45;;
26864;SDS011;40618;51.166;10.322;2023-04-10T11:07:12;4.43;;;3.85;;
26864;SDS011;40618;51.166;10.322;2023-04-10T11:09:46;7.78;;;4.70;;
26864;SDS011;40618;51.166;10.322;2023-04-10T11:12:25;5.15;;;3.95;;
26864;SDS011;40618;51.166;10.322;2023-04-10T11:14:58;4.82;;;3.95;;
26864;SDS011;40618;51.166;10.322;2023-04-10T11:20:13;7.05;;;4.97;;
26864;SDS011;40618;51.166;10.322;2023-04-10T11:25:49;5.72;;;4.00;;
26864;SDS011;40618;51.166;10.322;2023-04-10T11:36:22;9.88;;;5.28;;
26864;SDS011;40618;51.166;10.322;2023-04-10T11:38:55;9.20;;;5.50;;
26864;SDS011;40618;51.166;10.322;2023-04-10T11:41:28;12.23;;;7.05;;
26864;SDS011;40618;51.166;10.322;2023-04-10T11:43:56;9.95;;;6.00;;
26864;SDS011;40618;51.166;10.322;2023-04-10T11:46:27;8.13;;;5.53;;
26864;SDS011;40618;51.166;10.322;2023-04-10T11:48:58;8.38;;;5.88;;
26864;SDS011;40618;51.166;10.322;2023-04-10T11:51:27;7.95;;;5.45;;
26864;SDS011;40618;51.166;10.322;2023-04-10T11:54:09;7.15;;;4.85;;
26864;SDS011;40618;51.166;10.322;2023-04-10T11:56:40;7.45;;;5.07;;
26864;SDS011;40618;51.166;10.322;2023-04-10T11:59:22;6.13;;;4.65;;
26864;SDS011;40618;51.166;10.322;2023-04-10T12:01:47;6.20;;;4.60;;
26864;SDS011;40618;51.166;10.322;2023-04-10T12:04:18;7.72;;;4.63;;
26864;SDS011;40618;51.166;10.322;2023-04-10T12:06:56;7.32;;;4.75;;
26864;SDS011;40618;51.166;10.322;2023-04-10T12:09:22;10.60;;;5.70;;
26864;SDS011;40618;51.166;10.322;2023-04-10T12:11:54;14.10;;;7.70;;
26864;SDS011;40618;51.166;10.322;2023-04-10T12:14:27;7.43;;;4.13;;
26864;SDS011;40618;51.166;10.322;2023-04-10T12:16:57;9.60;;;4.80;;
26864;SDS011;40618;51.166;10.322;2023-04-10T12:19:25;5.85;;;3.63;;
26864;SDS011;40618;51.166;10.322;2023-04-10T12:21:51;6.13;;;3.72;;
26864;SDS011;40618;51.166;10.322;2023-04-10T12:29:46;8.40;;;4.50;;
26864;SDS011;40618;51.166;10.322;2023-04-10T12:34:48;7.30;;;4.10;;
26864;SDS011;40618;51.166;10.322;2023-04-10T12:37:21;10.07;;;5.55;;
26864;SDS011;40618;51.166;10.322;2023-04-10T12:39:48;7.55;;;4.68;;
26864;SDS011;40618;51.166;10.322;2023-04-10T12:44:57;9.68;;;5.18;;
26864;SDS011;40618;51.166;10.322;2023-04-10T12:47:25;9.18;;;4.68;;
26864;SDS011;40618;51.166;10.322;2023-04-10T12:52:33;7.10;;;4.03;;
26864;SDS011;40618;51.166;10.322;2023-04-10T12:55:13;8.93;;;5.45;;
26864;SDS011;40618;51.166;10.322;2023-04-10T12:57:48;7.20;;;4.53;;
26864;SDS011;40618;51.166;10.322;2023-04-10T13:02:43;4.97;;;3.75;;
26864;SDS011;40618;51.166;10.322;2023-04-10T13:05:11;6.50;;;3.58;;
26864;SDS011;40618;51.166;10.322;2023-04-10T13:07:37;8.13;;;4.15;;
26864;SDS011;40618;51.166;10.322;2023-04-10T13:10:05;7.25;;;4.25;;
26864;SDS011;40618;51.166;10.322;2023-04-10T13:12:31;10.00;;;5.28;;
26864;SDS011;40618;51.166;10.322;2023-04-10T13:15:02;5.93;;;3.90;;
26864;SDS011;40618;51.166;10.322;2023-04-10T13:17:29;7.07;;;4.10;;
26864;SDS011;40618;51.166;10.322;2023-04-10T13:19:54;10.40;;;5.95;;
26864;SDS011;40618;51.166;10.322;2023-04-10T13:22:20;7.72;;;4.85;;
26864;SDS011;40618;51.166;10.322;2023-04-10T13:24:46;8.38;;;5.18;;
26864;SDS011;40618;51.166;10.322;2023-04-10T13:27:11;5.82;;;4.32;;
26864;SDS011;40618;51.166;10.322;2023-04-10T13:29:41;4.40;;;3.50;;
26864;SDS011;40618;51.166;10.322;2023-04-10T13:32:07;4.03;;;3.10;;
26864;SDS011;40618;51.166;10.322;2023-04-10T13:34:33;3.90;;;2.75;;
26864;SDS011;40618;51.166;10.322;2023-04-10T13:36:59;3.72;;;2.97;;
26864;SDS011;40618;51.166;10.322;2023-04-10T13:39:27;4.03;;;3.22;;
26864;SDS011;40618;51.166;10.322;2023-04-10T13:41:55;4.15;;;3.10;;
26864;SDS011;40618;51.166;10.322;2023-04-10T13:44:21;4.15;;;2.90;;
26864;SDS011;40618;51.166;10.322;2023-04-10T13:46:47;4.43;;;2.85;;
26864;SDS011;40618;51.166;10.322;2023-04-10T13:49:13;3.53;;;2.67;;
26864;SDS011;40618;51.166;10.322;2023-04-10T13:51:43;3.83;;;3.20;;
26864;SDS011;40618;51.166;10.322;2023-04-10T13:54:09;2.92;;;2.70;;
26864;SDS011;40618;51.166;10.322;2023-04-10T13:56:35;3.45;;;2.90;;
26864;SDS011;40618;51.166;10.322;2023-04-10T13:59:01;3.70;;;2.67;;
26864;SDS011;40618;51.166;10.322;2023-04-10T14:01:28;3.10;;;2.80;;
26864;SDS011;40618;51.166;10.322;2023-04-10T14:03:53;3.00;;;2.50;;
26864;SDS011;40618;51.166;10.322;2023-04-10T14:06:20;3.30;;;3.00;;
26864;SDS011;40618;51.166;10.322;2023-04-10T14:08:45;3.30;;;2.95;;
26864;SDS011;40618;51.166;10.322;2023-04-10T14:11:11;3.20;;;2.60;;
26864;SDS011;40618;51.166;10.322;2023-04-10T14:13:36;2.58;;;2.38;;
26864;SDS011;40618;51.166;10.322;2023-04-10T14:16:02;3.25;;;2.85;;
26864;SDS011;40618;51.166;10.322;2023-04-10T14:18:28;3.17;;;2.58;;
26864;SDS011;40618;51.166;10.322;2023-04-10T14:20:54;4.80;;;2.83;;
26864;SDS011;40618;51.166;10.322;2023-04-10T14:23:19;3.70;;;3.00;;
26864;SDS011;40618;51.166;10.322;2023-04-10T14:25:46;5.47;;;3.25;;
26864;SDS011;40618;51.166;10.322;2023-04-10T14:28:14;4.40;;;2.90;;
26864;SDS011;40618;51.166;10.322;2023-04-10T14:30:44;3.92;;;3.15;;
26864;SDS011;40618;51.166;10.322;2023-04-10T14:33:15;4.72;;;2.78;;
26864;SDS011;40618;51.166;10.322;2023-04-10T14:35:42;3.85;;;3.03;;
26864;SDS011;40618;51.166;10.322;2023-04-10T14:38:08;4.07;;;3.28;;
26864;SDS011;40618;51.166;10.322;2023-04-10T14:40:35;5.10;;;3.17;;
26864;SDS011;40618;51.166;10.322;2023-04-10T14:43:06;3.65;;;3.20;;
26864;SDS011;40618;51.166;10.322;2023-04-10T14:45:32;4.47;;;2.80;;
26864;SDS011;40618;51.166;10.322;2023-04-10T14:47:58;3.28;;;2.97;;
26864;SDS011;40618;51.166;10.322;2023-04-10T14:50:24;3.90;;;2.85;;
26864;SDS011;40618;51.166;10.322;2023-04-10T14:52:50;4.28;;;3.03;;
26864;SDS011;40618;51.166;10.322;2023-04-10T14:55:16;3.05;;;2.70;;
26864;SDS011;40618;51.166;10.322;2023-04-10T14:57:42;2.70;;;2.50;;
26864;SDS011;40618;51.166;10.322;2023-04-10T15:00:07;2.83;;;2.42;;
26864;SDS011;40618;51.166;10.322;2023-04-10T15:02:34;3.00;;;2.53;;
26864;SDS011;40618;51.166;10.322;2023-04-10T15:05:02;3.83;;;2.83;;
26864;SDS011;40618;51.166;10.322;2023-04-10T15:07:29;5.65;;;3.30;;
26864;SDS011;40618;51.166;10.322;2023-04-10T15:09:55;3.25;;;2.88;;
26864;SDS011;40618;51.166;10.322;2023-04-10T15:12:22;4.82;;;3.60;;
26864;SDS011;40618;51.166;10.322;2023-04-10T15:14:49;5.95;;;3.95;;
26864;SDS011;40618;51.166;10.322;2023-04-10T15:17:19;4.15;;;3.20;;
26864;SDS011;40618;51.166;10.322;2023-04-10T15:19:47;6.57;;;2.97;;
26864;SDS011;40618;51.166;10.322;2023-04-10T15:22:13;3.70;;;3.20;;
26864;SDS011;40618;51.166;10.322;2023-04-10T15:24:39;6.05;;;3.88;;
26864;SDS011;40618;51.166;10.322;2023-04-10T15:27:05;6.22;;;4.63;;